Time;durP1;ratioP1;P1;durP2;ratioP2;P2;SDS_P1;SDS_P2;PMS_P1;PMS_P2;Temp;Humidity;BMP_temperature;BMP_pressure;BME280_temperature;BME280_humidity;BME280_pressure;Samples;Min_cycle;Max_cycle;Signal;HPM_P1;HPM_P2
2021/01/14 00:02:26;;;;;;;0.32;0.32;;;10.10;99.90;;;;;;6209234;23;20009;-86
2021/01/14 00:04:53;;;;;;;1.42;1.33;;;10.00;99.90;;;;;;6210755;23;20059;-85
2021/01/14 00:07:20;;;;;;;1.15;0.65;;;10.10;99.90;;;;;;6210284;23;20008;-85
2021/01/14 00:09:47;;;;;;;0.52;0.43;;;10.00;99.90;;;;;;6209548;23;20024;-85
2021/01/14 00:12:14;;;;;;;0.80;0.80;;;10.00;99.90;;;;;;6183761;23;20343;-85
2021/01/14 00:14:40;;;;;;;0.88;0.55;;;10.00;99.90;;;;;;6183450;23;20391;-85
2021/01/14 00:17:06;;;;;;;0.52;0.52;;;10.00;99.90;;;;;;6210264;23;20031;-85
2021/01/14 00:19:32;;;;;;;1.70;1.60;;;10.00;99.90;;;;;;6183115;23;20012;-85
2021/01/14 00:21:59;;;;;;;0.10;0.10;;;10.00;99.90;;;;;;6209925;23;20299;-85
2021/01/14 00:24:25;;;;;;;3.10;0.63;;;9.90;99.90;;;;;;6210395;23;20032;-85
2021/01/14 00:26:51;;;;;;;0.45;0.45;;;10.00;99.90;;;;;;6210376;23;20513;-85
2021/01/14 00:29:18;;;;;;;0.10;0.10;;;9.90;99.90;;;;;;6209789;23;20000;-85
2021/01/14 00:31:44;;;;;;;0.32;0.32;;;10.00;99.90;;;;;;6209875;23;20004;-84
2021/01/14 00:34:11;;;;;;;0.40;0.40;;;10.00;99.90;;;;;;6210546;23;20008;-85
2021/01/14 00:39:28;;;;;;;0.20;0.20;;;9.90;99.90;;;;;;6209577;23;20015;-85
2021/01/14 00:41:55;;;;;;;0.20;0.20;;;9.90;99.90;;;;;;6209596;23;20012;-85
2021/01/14 00:44:21;;;;;;;0.10;0.10;;;9.80;99.90;;;;;;6183152;23;20005;-85
2021/01/14 00:46:47;;;;;;;0.00;0.00;;;9.80;99.90;;;;;;6209747;23;20015;-85
2021/01/14 00:49:13;;;;;;;0.00;0.00;;;9.90;99.90;;;;;;6209374;23;20001;-85
2021/01/14 00:51:39;;;;;;;2.05;0.57;;;9.80;99.90;;;;;;6210061;23;20005;-85
2021/01/14 00:54:06;;;;;;;0.52;0.52;;;9.80;99.90;;;;;;6209851;23;20015;-85
2021/01/14 00:56:37;;;;;;;0.10;0.10;;;9.80;99.90;;;;;;6209978;23;20004;-85
2021/01/14 00:59:07;;;;;;;0.20;0.20;;;9.80;99.90;;;;;;6209895;23;20008;-85
2021/01/14 01:01:33;;;;;;;0.73;0.73;;;9.70;99.90;;;;;;6208640;23;20083;-85
2021/01/14 01:03:59;;;;;;;0.15;0.15;;;9.70;99.90;;;;;;6197088;23;20013;-85
2021/01/14 01:06:34;;;;;;;0.50;0.50;;;9.70;99.90;;;;;;6209138;23;20005;-85
2021/01/14 01:09:01;;;;;;;0.35;0.35;;;9.70;99.90;;;;;;6209813;23;20005;-85
2021/01/14 01:11:27;;;;;;;1.20;0.57;;;9.60;99.90;;;;;;6209887;23;20008;-85
2021/01/14 01:13:53;;;;;;;0.08;0.08;;;9.60;99.90;;;;;;6209588;23;20481;-85
2021/01/14 01:16:20;;;;;;;0.47;0.47;;;9.60;99.90;;;;;;6209423;23;20000;-85
2021/01/14 01:18:47;;;;;;;0.10;0.10;;;9.70;99.90;;;;;;6208218;23;20013;-85
2021/01/14 01:21:14;;;;;;;0.10;0.10;;;9.70;99.90;;;;;;6209477;23;20075;-84
2021/01/14 01:23:40;;;;;;;0.00;0.00;;;9.70;99.90;;;;;;6209563;23;20501;-84
2021/01/14 01:26:05;;;;;;;0.45;0.30;;;9.70;99.90;;;;;;6208000;23;20004;-84
2021/01/14 01:28:32;;;;;;;0.10;0.10;;;9.70;99.90;;;;;;6209095;23;20007;-84
2021/01/14 01:30:57;;;;;;;0.17;0.17;;;9.70;99.90;;;;;;6207428;23;20484;-83
2021/01/14 01:33:27;;;;;;;0.08;0.08;;;9.70;99.90;;;;;;6209898;23;20228;-85
2021/01/14 01:35:54;;;;;;;0.28;0.28;;;9.60;99.90;;;;;;6207919;23;20008;-85
2021/01/14 01:38:20;;;;;;;0.30;0.30;;;9.60;99.90;;;;;;6209482;23;20004;-85
2021/01/14 01:40:57;;;;;;;0.10;0.10;;;9.60;99.90;;;;;;6209662;23;20350;-85
2021/01/14 01:43:23;;;;;;;0.10;0.10;;;9.60;99.90;;;;;;6207805;23;20637;-85
2021/01/14 01:45:50;;;;;;;0.08;0.08;;;9.60;99.90;;;;;;6209850;23;20521;-84
2021/01/14 01:48:17;;;;;;;0.77;0.53;;;9.60;99.90;;;;;;6208291;23;20123;-85
2021/01/14 01:50:48;;;;;;;0.00;0.00;;;9.60;99.90;;;;;;6209410;23;20009;-85
2021/01/14 01:53:14;;;;;;;0.15;0.15;;;9.60;99.90;;;;;;6208212;23;20004;-85
2021/01/14 01:55:43;;;;;;;0.10;0.10;;;9.60;99.90;;;;;;6209878;23;20015;-85
2021/01/14 01:58:11;;;;;;;0.13;0.13;;;9.60;99.90;;;;;;6207905;23;20513;-85
2021/01/14 02:00:37;;;;;;;0.28;0.28;;;9.60;99.90;;;;;;6208211;23;20083;-85
2021/01/14 02:03:03;;;;;;;0.20;0.20;;;9.70;99.90;;;;;;6209454;23;20087;-85
2021/01/14 02:05:29;;;;;;;0.03;0.03;;;9.70;99.90;;;;;;6209571;23;20016;-85
2021/01/14 02:08:16;;;;;;;0.10;0.10;;;9.60;99.90;;;;;;6210453;23;20059;-85
2021/01/14 02:10:53;;;;;;;0.75;0.75;;;9.60;99.90;;;;;;6183183;23;20084;-86
2021/01/14 02:13:46;;;;;;;0.22;0.22;;;9.60;99.90;;;;;;6184975;23;20027;-85
2021/01/14 02:16:13;;;;;;;1.20;0.80;;;9.60;99.90;;;;;;6211725;23;20473;-86
2021/01/14 02:18:41;;;;;;;0.00;0.00;;;9.60;99.90;;;;;;6212107;23;20610;-86
2021/01/14 02:21:08;;;;;;;0.10;0.10;;;9.60;99.90;;;;;;6211624;23;20753;-86
2021/01/14 02:23:53;;;;;;;0.10;0.10;;;9.60;99.90;;;;;;6185017;23;20708;-86
2021/01/14 02:26:24;;;;;;;0.10;0.10;;;9.60;99.90;;;;;;6211009;23;20508;-86
2021/01/14 02:28:52;;;;;;;0.00;0.00;;;9.50;99.90;;;;;;6184692;23;20005;-86
2021/01/14 02:31:20;;;;;;;0.00;0.00;;;9.40;99.90;;;;;;6211497;23;20024;-86
2021/01/14 02:33:51;;;;;;;0.08;0.08;;;9.40;99.90;;;;;;6211320;23;20012;-86
2021/01/14 02:36:18;;;;;;;0.45;0.45;;;9.50;99.90;;;;;;6210878;23;20015;-86
2021/01/14 02:38:44;;;;;;;0.20;0.20;;;9.40;99.90;;;;;;6184464;23;20768;-86
2021/01/14 02:41:10;;;;;;;1.98;0.52;;;9.50;99.90;;;;;;6211300;23;20008;-87
2021/01/14 02:43:36;;;;;;;0.10;0.10;;;9.50;99.90;;;;;;6211393;23;19997;-87
2021/01/14 02:46:03;;;;;;;0.10;0.10;;;9.50;99.90;;;;;;6184607;23;20066;-86
2021/01/14 02:48:35;;;;;;;0.05;0.05;;;9.50;99.90;;;;;;6184898;23;20351;-86
2021/01/14 02:51:06;;;;;;;0.05;0.05;;;9.60;99.90;;;;;;6210594;23;20000;-86
2021/01/14 02:53:34;;;;;;;0.10;0.10;;;9.50;99.90;;;;;;6211213;23;20005;-86
2021/01/14 02:56:01;;;;;;;0.08;0.08;;;9.60;99.90;;;;;;6211816;23;20054;-85
2021/01/14 02:58:28;;;;;;;;;;;9.60;99.90;;;;;;6211838;23;20691;-86
2021/01/14 03:00:55;;;;;;;0.20;0.20;;;9.60;99.90;;;;;;6211496;23;20361;-86
2021/01/14 03:03:21;;;;;;;0.10;0.10;;;9.60;99.90;;;;;;6211139;23;20431;-85
2021/01/14 03:05:46;;;;;;;0.00;0.00;;;9.50;99.90;;;;;;6211429;23;20062;-86
2021/01/14 03:08:12;;;;;;;0.10;0.10;;;9.50;99.90;;;;;;6211246;23;19997;-86
2021/01/14 03:10:38;;;;;;;0.63;0.63;;;9.50;99.90;;;;;;6184219;23;20016;-86
2021/01/14 03:13:04;;;;;;;0.10;0.10;;;9.50;99.90;;;;;;6210777;23;20083;-88
2021/01/14 03:15:29;;;;;;;1.70;1.60;;;9.50;99.90;;;;;;6211653;23;20011;-88
2021/01/14 03:17:55;;;;;;;3.03;2.83;;;9.50;99.90;;;;;;6184163;23;20019;-87
2021/01/14 03:20:21;;;;;;;9.38;8.27;;;9.50;99.90;;;;;;6211892;23;20001;-86
2021/01/14 03:22:47;;;;;;;2.92;2.35;;;9.50;99.90;;;;;;6211591;23;20020;-87
2021/01/14 03:25:13;;;;;;;2.63;1.98;;;9.50;99.90;;;;;;6183889;23;20047;-87
2021/01/14 03:27:44;;;;;;;0.20;0.20;;;9.50;99.90;;;;;;6211363;23;20012;-87
2021/01/14 03:30:12;;;;;;;0.45;0.45;;;9.50;99.90;;;;;;6210810;23;20011;-86
2021/01/14 03:32:38;;;;;;;0.50;0.45;;;9.50;99.90;;;;;;6211306;23;20009;-86
2021/01/14 03:35:06;;;;;;;0.20;0.20;;;9.50;99.90;;;;;;6210827;23;20063;-87
2021/01/14 03:37:32;;;;;;;0.10;0.10;;;9.50;99.90;;;;;;6211467;23;20036;-87
2021/01/14 03:39:58;;;;;;;0.10;0.10;;;9.40;99.90;;;;;;6210838;23;20001;-87
2021/01/14 03:42:24;;;;;;;0.45;0.45;;;9.40;99.90;;;;;;6211802;23;20076;-87
2021/01/14 03:44:50;;;;;;;0.30;0.30;;;9.40;99.90;;;;;;6211137;23;20005;-87
2021/01/14 03:47:16;;;;;;;0.10;0.10;;;9.40;99.90;;;;;;6184478;23;20012;-87
2021/01/14 03:49:43;;;;;;;0.38;0.38;;;9.40;99.90;;;;;;6211365;23;20028;-87
2021/01/14 03:52:12;;;;;;;0.10;0.10;;;9.40;99.90;;;;;;6211267;23;20058;-87
2021/01/14 03:54:38;;;;;;;0.10;0.10;;;9.40;99.90;;;;;;6211494;23;20026;-87
2021/01/14 03:57:04;;;;;;;0.10;0.10;;;9.40;99.90;;;;;;6211168;23;20000;-87
2021/01/14 03:59:30;;;;;;;0.20;0.20;;;9.40;99.90;;;;;;6184443;23;20008;-87
2021/01/14 04:02:06;;;;;;;0.25;0.25;;;9.40;99.90;;;;;;6184656;23;20015;-87
2021/01/14 04:04:39;;;;;;;0.73;0.73;;;9.40;99.90;;;;;;6209731;23;20020;-87
2021/01/14 04:07:08;;;;;;;0.00;0.00;;;9.40;99.90;;;;;;6214043;23;20008;-88
2021/01/14 04:09:34;;;;;;;0.15;0.15;;;9.40;99.90;;;;;;6214310;23;20015;-87
2021/01/14 04:12:00;;;;;;;1.47;0.67;;;9.30;99.90;;;;;;6214188;23;20015;-89
2021/01/14 04:14:26;;;;;;;0.15;0.15;;;9.40;99.90;;;;;;6214443;23;20008;-88
2021/01/14 04:16:53;;;;;;;2.85;2.15;;;9.40;99.90;;;;;;6213907;23;20008;-87
2021/01/14 04:19:19;;;;;;;4.50;4.15;;;9.40;99.90;;;;;;6240663;23;20463;-88
2021/01/14 04:21:45;;;;;;;1.13;1.13;;;9.30;99.90;;;;;;6213680;23;20011;-87
2021/01/14 04:24:11;;;;;;;16.15;4.38;;;9.30;99.90;;;;;;6213446;23;20079;-86
2021/01/14 04:26:37;;;;;;;1.07;1.07;;;9.30;99.90;;;;;;6213608;23;20499;-86
2021/01/14 04:29:04;;;;;;;1.15;1.15;;;9.30;99.90;;;;;;6240341;23;20227;-86
2021/01/14 04:31:30;;;;;;;3.28;2.70;;;9.30;99.90;;;;;;6241087;22;20520;-87
2021/01/14 04:33:56;;;;;;;0.52;0.52;;;9.30;99.90;;;;;;6213428;23;20038;-88
2021/01/14 04:36:22;;;;;;;9.20;2.83;;;9.30;99.90;;;;;;6240191;23;20341;-87
2021/01/14 04:38:48;;;;;;;0.10;0.10;;;9.20;99.90;;;;;;6240910;23;20000;-87
2021/01/14 04:41:17;;;;;;;0.25;0.25;;;9.30;99.90;;;;;;6240188;23;20362;-88
2021/01/14 04:43:43;;;;;;;7.68;1.95;;;9.20;99.90;;;;;;6240681;23;19997;-87
2021/01/14 04:46:11;;;;;;;14.77;2.80;;;9.20;99.90;;;;;;6214604;23;20376;-87
2021/01/14 04:48:38;;;;;;;0.10;0.10;;;9.20;99.90;;;;;;6240165;23;19997;-89
2021/01/14 04:51:13;;;;;;;0.15;0.15;;;9.30;99.90;;;;;;6213339;23;20004;-89
2021/01/14 04:53:43;;;;;;;0.10;0.10;;;9.20;99.90;;;;;;6214192;23;20349;-89
2021/01/14 04:56:12;;;;;;;0.35;0.35;;;9.20;99.90;;;;;;6213311;23;20000;-89
2021/01/14 04:58:45;;;;;;;0.60;0.60;;;9.20;99.90;;;;;;6240022;23;20007;-88
2021/01/14 05:01:21;;;;;;;0.25;0.25;;;9.20;99.90;;;;;;6213685;23;20023;-87
2021/01/14 05:03:50;;;;;;;0.10;0.10;;;9.20;99.90;;;;;;6224224;23;20012;-87
2021/01/14 05:06:21;;;;;;;0.52;0.40;;;9.20;99.90;;;;;;6183548;23;20008;-88
2021/01/14 05:08:49;;;;;;;0.43;0.43;;;9.20;99.90;;;;;;6210459;23;20004;-89
2021/01/14 05:11:18;;;;;;;0.75;0.75;;;9.10;99.90;;;;;;6184096;23;20443;-88
2021/01/14 05:13:46;;;;;;;0.63;0.63;;;9.20;99.90;;;;;;6183636;23;20704;-89
2021/01/14 05:16:13;;;;;;;1.00;0.85;;;9.20;99.90;;;;;;6210247;23;20058;-89
2021/01/14 05:18:42;;;;;;;0.47;0.47;;;9.20;99.90;;;;;;6210079;23;20001;-89
2021/01/14 05:21:07;;;;;;;0.57;0.57;;;9.20;99.90;;;;;;6210470;23;20000;-89
2021/01/14 05:23:34;;;;;;;0.30;0.30;;;9.20;99.90;;;;;;6183029;23;20520;-89
2021/01/14 05:26:00;;;;;;;0.30;0.30;;;9.10;99.90;;;;;;6210268;23;19997;-90
2021/01/14 05:28:29;;;;;;;0.28;0.28;;;9.20;99.90;;;;;;6183526;23;20454;-90
2021/01/14 05:31:14;;;;;;;0.25;0.25;;;9.20;99.90;;;;;;6209616;23;20024;-90
2021/01/14 05:33:40;;;;;;;0.10;0.10;;;9.20;99.90;;;;;;6183173;23;20094;-90
2021/01/14 05:36:06;;;;;;;0.10;0.10;;;9.10;99.90;;;;;;6183570;23;20020;-89
2021/01/14 05:38:33;;;;;;;0.20;0.20;;;9.00;99.90;;;;;;6182418;23;20009;-88
2021/01/14 05:41:19;;;;;;;0.00;0.00;;;9.00;99.90;;;;;;6209716;23;20047;-88
2021/01/14 05:43:49;;;;;;;;;;;9.00;99.90;;;;;;6183533;23;20355;-88
2021/01/14 05:46:17;;;;;;;0.10;0.10;;;9.00;99.90;;;;;;6182767;23;19910;-89
2021/01/14 05:48:44;;;;;;;0.82;0.50;;;9.00;99.90;;;;;;6210025;23;20007;-88
2021/01/14 05:51:20;;;;;;;3.65;1.40;;;9.00;99.90;;;;;;6209623;23;20001;-86
2021/01/14 05:54:04;;;;;;;0.10;0.10;;;9.00;99.90;;;;;;6209511;23;20004;-89
2021/01/14 05:56:49;;;;;;;0.00;0.00;;;9.00;99.90;;;;;;6183425;23;20103;-89
2021/01/14 05:59:17;;;;;;;0.10;0.10;;;8.90;99.90;;;;;;6183065;23;20043;-88
2021/01/14 06:01:59;;;;;;;0.10;0.10;;;8.70;99.90;;;;;;6209284;23;20014;-88
2021/01/14 06:04:27;;;;;;;0.30;0.30;;;8.70;99.90;;;;;;6206957;23;20027;-87
2021/01/14 06:06:57;;;;;;;0.10;0.10;;;8.70;99.90;;;;;;6212478;23;20004;-87
2021/01/14 06:09:23;;;;;;;0.00;0.00;;;8.70;99.90;;;;;;6213573;23;20350;-87
2021/01/14 06:12:05;;;;;;;0.00;0.00;;;8.60;99.90;;;;;;6212673;23;20442;-88
2021/01/14 06:14:32;;;;;;;0.05;0.05;;;8.60;99.90;;;;;;6239854;23;20004;-88
2021/01/14 06:17:00;;;;;;;0.17;0.17;;;8.60;99.90;;;;;;6212979;23;20058;-88
2021/01/14 06:19:27;;;;;;;0.10;0.10;;;8.70;99.90;;;;;;6240087;23;20180;-88
2021/01/14 06:21:57;;;;;;;;;;;8.60;99.90;;;;;;6239237;23;20054;-88
2021/01/14 06:24:37;;;;;;;0.20;0.20;;;8.60;99.90;;;;;;6213131;23;19906;-90
2021/01/14 06:27:06;;;;;;;0.10;0.10;;;8.60;99.90;;;;;;6215738;23;20011;-92
2021/01/14 06:29:36;;;;;;;0.10;0.10;;;8.60;99.90;;;;;;6218842;23;20011;-94
2021/01/14 06:32:13;;;;;;;0.20;0.20;;;8.60;99.90;;;;;;6218185;23;20027;-93
2021/01/14 06:34:44;;;;;;;9.30;1.40;;;8.60;99.90;;;;;;6216139;23;20087;-90
2021/01/14 06:37:17;;;;;;;0.10;0.10;;;8.70;99.90;;;;;;6213383;23;20354;-88
2021/01/14 06:39:51;;;;;;;0.10;0.10;;;8.60;99.90;;;;;;6213366;23;20012;-89
2021/01/14 06:42:28;;;;;;;0.10;0.10;;;8.60;99.90;;;;;;6239632;23;20036;-86
2021/01/14 06:45:00;;;;;;;0.10;0.10;;;8.60;99.90;;;;;;6210774;23;20411;-87
2021/01/14 06:47:31;;;;;;;0.10;0.10;;;8.60;99.90;;;;;;6213716;23;20043;-86
2021/01/14 06:50:17;;;;;;;1.25;1.17;;;8.60;99.90;;;;;;6240024;23;20377;-87
2021/01/14 06:52:46;;;;;;;0.35;0.35;;;8.60;99.90;;;;;;6213152;23;20004;-87
2021/01/14 06:55:16;;;;;;;1.42;1.33;;;8.60;99.90;;;;;;6239923;23;20560;-88
2021/01/14 06:58:01;;;;;;;0.10;0.10;;;8.70;99.90;;;;;;6240381;23;20122;-89
2021/01/14 07:00:29;;;;;;;0.20;0.20;;;8.70;99.90;;;;;;6240628;23;20082;-89
2021/01/14 07:03:16;;;;;;;0.63;0.43;;;8.70;99.90;;;;;;6214599;23;20162;-88
2021/01/14 07:05:54;;;;;;;0.20;0.20;;;8.60;99.90;;;;;;6241371;23;20092;-88
2021/01/14 07:08:37;;;;;;;0.10;0.10;;;8.70;99.90;;;;;;6214580;23;20011;-88
2021/01/14 07:11:10;;;;;;;0.20;0.20;;;8.70;99.90;;;;;;6214802;23;20012;-88
2021/01/14 07:13:47;;;;;;;0.50;0.50;;;8.70;99.90;;;;;;6241590;23;20000;-88
2021/01/14 07:16:20;;;;;;;0.20;0.20;;;8.70;99.90;;;;;;6242222;23;20010;-88
2021/01/14 07:18:47;;;;;;;0.43;0.43;;;8.70;99.90;;;;;;6214101;23;20078;-87
2021/01/14 07:21:37;;;;;;;0.32;0.32;;;8.70;99.90;;;;;;6214627;23;20004;-89
2021/01/14 07:24:19;;;;;;;2.40;1.75;;;8.70;99.90;;;;;;6214695;23;20014;-88
2021/01/14 07:26:50;;;;;;;0.45;0.45;;;8.60;99.90;;;;;;6241783;23;20062;-88
2021/01/14 07:29:16;;;;;;;0.90;0.85;;;8.60;99.90;;;;;;6214525;23;20543;-88
2021/01/14 07:31:51;;;;;;;0.10;0.10;;;8.60;99.90;;;;;;6241076;22;20007;-87
2021/01/14 07:34:41;;;;;;;20.50;3.35;;;8.60;99.90;;;;;;6213712;23;20270;-86
2021/01/14 07:37:12;;;;;;;0.25;0.25;;;8.60;99.90;;;;;;6213830;23;20015;-86
2021/01/14 07:39:47;;;;;;;0.47;0.47;;;8.60;99.90;;;;;;6214469;23;20079;-88
2021/01/14 07:42:21;;;;;;;1.92;1.83;;;8.60;99.90;;;;;;6241129;23;20019;-86
2021/01/14 07:45:04;;;;;;;1.17;1.08;;;8.60;99.90;;;;;;6241777;23;20000;-88
2021/01/14 07:47:37;;;;;;;1.83;0.95;;;8.60;99.90;;;;;;6214013;23;20437;-86
2021/01/14 07:50:21;;;;;;;2.63;1.40;;;8.60;99.90;;;;;;6241475;23;20008;-85
2021/01/14 07:52:53;;;;;;;4.85;2.47;;;8.60;99.90;;;;;;6214039;23;20019;-85
2021/01/14 07:55:25;;;;;;;3.25;2.72;;;8.60;99.90;;;;;;6241322;23;20480;-87
2021/01/14 07:58:19;;;;;;;3.97;2.22;;;8.60;99.90;;;;;;6214255;23;20468;-87
2021/01/14 08:01:06;;;;;;;17.40;4.82;;;8.60;99.90;;;;;;6214404;23;20058;-87
2021/01/14 08:03:42;;;;;;;1.45;1.40;;;8.60;99.90;;;;;;6227780;23;20083;-85
2021/01/14 08:06:29;;;;;;;0.20;0.20;;;8.60;99.90;;;;;;6210101;23;20044;-87
2021/01/14 08:08:56;;;;;;;0.40;0.40;;;8.60;99.90;;;;;;6210591;23;20084;-87
2021/01/14 08:11:24;;;;;;;1.65;1.55;;;8.60;99.90;;;;;;6184331;23;20014;-87
2021/01/14 08:14:09;;;;;;;1.75;1.65;;;8.60;99.90;;;;;;6183680;23;20058;-87
2021/01/14 08:16:49;;;;;;;0.45;0.45;;;8.70;99.90;;;;;;6183532;23;20522;-87
2021/01/14 08:19:31;;;;;;;0.10;0.10;;;8.70;99.90;;;;;;6210721;23;20009;-88
2021/01/14 08:22:02;;;;;;;0.55;0.55;;;8.70;99.90;;;;;;6210523;23;20083;-87
2021/01/14 08:24:42;;;;;;;0.20;0.20;;;8.80;99.90;;;;;;6210600;23;20011;-87
2021/01/14 08:27:10;;;;;;;0.15;0.15;;;8.80;99.90;;;;;;6183739;23;20351;-87
2021/01/14 08:29:50;;;;;;;0.45;0.45;;;8.80;99.90;;;;;;6183694;23;20025;-87
2021/01/14 08:32:39;;;;;;;2.45;2.15;;;8.80;99.90;;;;;;6210528;23;20008;-86
2021/01/14 08:35:15;;;;;;;0.55;0.55;;;8.80;99.90;;;;;;6183829;23;20039;-87
2021/01/14 08:37:51;;;;;;;6.55;1.52;;;8.90;99.90;;;;;;6183787;23;20012;-87
2021/01/14 08:40:18;;;;;;;0.47;0.43;;;8.90;99.90;;;;;;6183567;23;20012;-87
2021/01/14 08:42:46;;;;;;;0.68;0.68;;;8.90;99.90;;;;;;6184005;23;20012;-86
2021/01/14 08:45:19;;;;;;;0.43;0.43;;;8.90;99.90;;;;;;6183893;23;20000;-87
2021/01/14 08:48:01;;;;;;;0.20;0.20;;;9.00;99.90;;;;;;6183981;23;20005;-86
2021/01/14 08:50:47;;;;;;;0.10;0.10;;;9.00;99.90;;;;;;6210425;23;20491;-86
2021/01/14 08:53:19;;;;;;;;;;;9.10;99.90;;;;;;6184223;23;20066;-86
2021/01/14 08:55:59;;;;;;;0.20;0.20;;;9.20;99.90;;;;;;6210169;23;19982;-87
2021/01/14 08:58:49;;;;;;;0.10;0.10;;;9.20;99.90;;;;;;6210401;23;20083;-87
2021/01/14 09:01:16;;;;;;;0.20;0.20;;;9.20;99.90;;;;;;6183633;23;20012;-87
2021/01/14 09:03:43;;;;;;;0.85;0.85;;;9.20;99.90;;;;;;6210010;23;20088;-87
2021/01/14 09:06:09;;;;;;;0.32;0.32;;;9.20;99.90;;;;;;6183692;23;20504;-87
2021/01/14 09:08:35;;;;;;;0.30;0.30;;;9.10;99.90;;;;;;6183417;23;20017;-87
2021/01/14 09:11:00;;;;;;;0.17;0.17;;;9.20;99.90;;;;;;6183122;23;20204;-87
2021/01/14 09:13:30;;;;;;;0.20;0.20;;;9.10;99.90;;;;;;6210463;23;20004;-86
2021/01/14 09:16:05;;;;;;;0.30;0.30;;;9.10;99.90;;;;;;6183650;23;20106;-87
2021/01/14 09:18:33;;;;;;;2.72;0.85;;;9.20;99.90;;;;;;6183446;23;20035;-87
2021/01/14 09:21:00;;;;;;;0.10;0.10;;;9.20;99.90;;;;;;6183226;23;20009;-88
2021/01/14 09:23:32;;;;;;;0.45;0.25;;;9.10;99.90;;;;;;6183690;23;20012;-87
2021/01/14 09:25:59;;;;;;;0.10;0.10;;;9.20;99.90;;;;;;6183395;23;20040;-87
2021/01/14 09:28:29;;;;;;;0.22;0.22;;;9.30;99.90;;;;;;6210120;23;20083;-87
2021/01/14 09:31:07;;;;;;;15.68;1.40;;;9.30;99.90;;;;;;6210133;23;21867;-87
2021/01/14 09:33:40;;;;;;;1.33;0.90;;;9.40;99.90;;;;;;6183449;23;20028;-87
2021/01/14 09:36:09;;;;;;;0.30;0.30;;;9.40;99.90;;;;;;6183491;23;20060;-88
2021/01/14 09:38:47;;;;;;;0.22;0.22;;;9.40;99.90;;;;;;6210236;23;20000;-88
2021/01/14 09:41:23;;;;;;;0.85;0.85;;;9.30;99.90;;;;;;6210118;23;20005;-88
2021/01/14 09:43:50;;;;;;;0.38;0.35;;;9.30;99.90;;;;;;6183787;23;20013;-87
2021/01/14 09:46:18;;;;;;;0.10;0.10;;;9.30;99.90;;;;;;6183343;23;20012;-88
2021/01/14 09:48:44;;;;;;;0.45;0.45;;;9.40;99.90;;;;;;6210186;23;20001;-88
2021/01/14 09:51:13;;;;;;;15.98;1.83;;;9.30;99.90;;;;;;6209894;23;20460;-88
2021/01/14 09:53:49;;;;;;;0.10;0.10;;;9.30;99.90;;;;;;6210541;23;20080;-88
2021/01/14 09:56:36;;;;;;;1.03;1.03;;;9.40;99.90;;;;;;6209856;23;20012;-88
2021/01/14 09:59:20;;;;;;;0.13;0.13;;;9.40;99.90;;;;;;6164202;23;20263;-87
2021/01/14 10:02:10;;;;;;;0.17;0.17;;;9.50;99.90;;;;;;6183577;23;20015;-88
2021/01/14 10:04:41;;;;;;;0.50;0.50;;;9.40;99.90;;;;;;6188817;23;20741;-88
2021/01/14 10:07:14;;;;;;;0.43;0.43;;;9.30;99.90;;;;;;6210387;23;20005;-88
2021/01/14 10:09:40;;;;;;;0.30;0.30;;;9.30;99.90;;;;;;6210717;23;20001;-87
2021/01/14 10:12:06;;;;;;;0.10;0.10;;;9.40;99.90;;;;;;6208549;23;20017;-88
2021/01/14 10:14:32;;;;;;;0.10;0.10;;;9.50;99.90;;;;;;6210332;23;20059;-88
2021/01/14 10:17:12;;;;;;;0.10;0.10;;;9.40;99.90;;;;;;6210482;23;20302;-87
2021/01/14 10:19:40;;;;;;;0.13;0.13;;;9.30;99.90;;;;;;6210320;23;20000;-88
2021/01/14 10:22:07;;;;;;;0.10;0.10;;;9.40;99.90;;;;;;6207955;23;20816;-87
2021/01/14 10:24:33;;;;;;;;;;;9.40;99.90;;;;;;6209158;23;20005;-88
2021/01/14 10:27:16;;;;;;;0.10;0.10;;;9.40;99.90;;;;;;6210444;23;19907;-87
2021/01/14 10:29:42;;;;;;;0.00;0.00;;;9.40;99.90;;;;;;6209020;23;20009;-87
2021/01/14 10:32:13;;;;;;;0.03;0.03;;;9.40;99.90;;;;;;6210212;23;20004;-87
2021/01/14 10:34:48;;;;;;;0.20;0.20;;;9.50;99.90;;;;;;6212227;23;20001;-88
2021/01/14 10:37:35;;;;;;;0.32;0.32;;;9.40;99.90;;;;;;6211938;23;20035;-88
2021/01/14 10:40:16;;;;;;;0.10;0.10;;;9.60;99.90;;;;;;6210945;23;20012;-88
2021/01/14 10:42:48;;;;;;;0.00;0.00;;;9.50;99.90;;;;;;6211986;23;20536;-87
2021/01/14 10:45:21;;;;;;;0.10;0.10;;;9.40;99.90;;;;;;6210093;23;20468;-88
2021/01/14 10:47:47;;;;;;;0.10;0.10;;;9.40;99.90;;;;;;6210418;23;20009;-87
2021/01/14 10:50:27;;;;;;;0.10;0.10;;;9.50;99.90;;;;;;6209936;23;20527;-87
2021/01/14 10:52:57;;;;;;;0.10;0.10;;;9.30;99.90;;;;;;6210132;23;20015;-88
2021/01/14 10:55:24;;;;;;;0.10;0.10;;;9.20;99.90;;;;;;6211459;23;20008;-87
2021/01/14 10:57:54;;;;;;;1.60;0.47;;;9.20;99.90;;;;;;6210158;23;20728;-87
2021/01/14 11:00:24;;;;;;;0.40;0.40;;;9.20;99.90;;;;;;6211199;23;20008;-87
2021/01/14 11:03:10;;;;;;;0.10;0.10;;;9.30;99.90;;;;;;6209589;23;20024;-87
2021/01/14 11:05:46;;;;;;;0.10;0.10;;;9.20;99.90;;;;;;6184808;23;20350;-88
2021/01/14 11:08:16;;;;;;;0.10;0.10;;;9.20;99.90;;;;;;6184685;23;20582;-88
2021/01/14 11:10:44;;;;;;;0.10;0.10;;;9.40;99.90;;;;;;6184690;23;20016;-87
2021/01/14 11:13:13;;;;;;;11.00;0.57;;;9.30;99.90;;;;;;6184977;23;20015;-88
2021/01/14 11:15:39;;;;;;;0.32;0.30;;;9.20;99.90;;;;;;6211515;23;20138;-87
2021/01/14 11:18:07;;;;;;;0.10;0.10;;;9.10;99.90;;;;;;6185183;23;20015;-87
2021/01/14 11:20:33;;;;;;;0.10;0.10;;;9.10;99.90;;;;;;6184403;23;20005;-88
2021/01/14 11:22:59;;;;;;;0.20;0.20;;;9.00;99.90;;;;;;6211431;23;20009;-88
2021/01/14 11:25:25;;;;;;;0.20;0.20;;;9.00;99.90;;;;;;6211144;23;20915;-88
2021/01/14 11:27:52;;;;;;;0.10;0.10;;;9.20;99.90;;;;;;6211823;23;20005;-88
2021/01/14 11:30:20;;;;;;;0.00;0.00;;;9.10;99.90;;;;;;6211432;23;20066;-88
2021/01/14 11:32:45;;;;;;;0.10;0.10;;;9.10;99.90;;;;;;6211049;23;20062;-88
2021/01/14 11:35:12;;;;;;;0.05;0.05;;;9.10;99.90;;;;;;6184804;23;20079;-88
2021/01/14 11:37:38;;;;;;;0.00;0.00;;;9.00;99.90;;;;;;6184912;23;20012;-88
2021/01/14 11:40:05;;;;;;;0.13;0.13;;;8.90;99.90;;;;;;6184754;23;20059;-88
2021/01/14 11:42:30;;;;;;;;;;;8.90;99.90;;;;;;6184534;23;20009;-89
2021/01/14 11:44:56;;;;;;;0.10;0.10;;;9.00;99.90;;;;;;6184318;23;20121;-88
2021/01/14 11:47:22;;;;;;;0.10;0.10;;;9.00;99.90;;;;;;6211629;23;20497;-88
2021/01/14 11:49:48;;;;;;;0.10;0.10;;;9.00;99.90;;;;;;6211595;23;20021;-89
2021/01/14 11:52:17;;;;;;;0.10;0.10;;;9.00;99.90;;;;;;6185376;23;20350;-88
2021/01/14 11:54:43;;;;;;;0.10;0.10;;;8.90;99.90;;;;;;6184716;23;20438;-88
2021/01/14 11:57:10;;;;;;;0.10;0.10;;;8.90;99.90;;;;;;6185119;23;20020;-88
2021/01/14 11:59:36;;;;;;;0.50;0.50;;;8.80;99.90;;;;;;6211386;23;20012;-88
2021/01/14 12:02:02;;;;;;;0.10;0.10;;;8.80;99.90;;;;;;6185344;23;20013;-87
2021/01/14 12:04:28;;;;;;;0.10;0.10;;;8.80;99.90;;;;;;6204277;23;20059;-88
2021/01/14 12:06:54;;;;;;;0.20;0.20;;;9.00;99.90;;;;;;6211677;23;20008;-88
2021/01/14 12:09:20;;;;;;;0.15;0.15;;;9.10;99.90;;;;;;6210190;23;20005;-88
2021/01/14 12:11:46;;;;;;;0.20;0.20;;;9.40;99.90;;;;;;6211225;23;20434;-88
2021/01/14 12:14:12;;;;;;;0.32;0.32;;;9.40;99.90;;;;;;6211260;23;20147;-88
2021/01/14 12:16:38;;;;;;;0.10;0.10;;;9.40;99.90;;;;;;6211188;23;20112;-87
2021/01/14 12:19:03;;;;;;;0.10;0.10;;;9.30;99.90;;;;;;6211477;23;20024;-87
2021/01/14 12:21:29;;;;;;;0.10;0.10;;;9.30;99.90;;;;;;6211510;23;20071;-88
2021/01/14 12:23:55;;;;;;;0.20;0.20;;;9.30;99.90;;;;;;6211014;23;20456;-87
2021/01/14 12:26:21;;;;;;;1.02;0.93;;;9.40;99.90;;;;;;6211533;23;20055;-88
2021/01/14 12:28:47;;;;;;;0.10;0.10;;;9.30;99.90;;;;;;6210497;23;20004;-88
2021/01/14 12:31:13;;;;;;;0.52;0.52;;;9.20;99.90;;;;;;6209837;23;20075;-87
2021/01/14 12:33:39;;;;;;;0.10;0.10;;;9.20;99.90;;;;;;6210844;23;20427;-87
2021/01/14 12:36:05;;;;;;;0.20;0.20;;;9.10;99.90;;;;;;6209586;23;20008;-87
2021/01/14 12:38:31;;;;;;;0.10;0.10;;;9.10;99.90;;;;;;6211425;23;20011;-87
2021/01/14 12:40:57;;;;;;;0.10;0.10;;;9.10;99.90;;;;;;6209375;23;20005;-87
2021/01/14 12:43:23;;;;;;;0.98;0.50;;;9.20;99.90;;;;;;6209633;23;20442;-87
2021/01/14 12:45:52;;;;;;;0.20;0.20;;;9.20;99.90;;;;;;6210588;23;19997;-87
2021/01/14 12:48:19;;;;;;;0.10;0.10;;;9.30;99.90;;;;;;6209693;23;20007;-87
2021/01/14 12:50:45;;;;;;;0.10;0.10;;;9.30;99.90;;;;;;6208812;23;20451;-88
2021/01/14 12:53:11;;;;;;;0.10;0.10;;;9.20;99.90;;;;;;6211228;23;20012;-88
2021/01/14 12:55:36;;;;;;;0.10;0.10;;;9.10;99.90;;;;;;6209208;23;20216;-87
2021/01/14 12:58:06;;;;;;;0.22;0.22;;;9.10;99.90;;;;;;6210837;23;20028;-87
2021/01/14 13:00:32;;;;;;;0.08;0.08;;;9.20;99.90;;;;;;6210859;23;20009;-88
2021/01/14 13:02:57;;;;;;;0.00;0.00;;;9.10;99.90;;;;;;6208461;23;20775;-87
2021/01/14 13:05:23;;;;;;;0.00;0.00;;;9.10;99.90;;;;;;6209488;23;20032;-88
2021/01/14 13:07:49;;;;;;;0.10;0.10;;;9.00;99.90;;;;;;6210526;23;20001;-88
2021/01/14 13:10:15;;;;;;;0.10;0.10;;;8.90;99.90;;;;;;6209556;23;20096;-87
2021/01/14 13:12:41;;;;;;;0.20;0.20;;;9.00;99.90;;;;;;6211289;23;20012;-88
2021/01/14 13:15:07;;;;;;;0.08;0.08;;;9.00;99.90;;;;;;6209120;23;20004;-87
2021/01/14 13:17:33;;;;;;;0.10;0.10;;;9.00;99.90;;;;;;6209751;23;20009;-88